sensor_id;sensor_type;location;lat;lon;timestamp;P1;durP1;ratioP1;P2;durP2;ratioP2
2438;SDS011;14509;47.992;7.848;2023-07-24T00:01:02;9.63;;;7.40;;
2438;SDS011;14509;47.992;7.848;2023-07-24T00:03:03;11.10;;;6.37;;
2438;SDS011;14509;47.992;7.848;2023-07-24T00:05:06;7.97;;;6.03;;
2438;SDS011;14509;47.992;7.848;2023-07-24T00:07:08;7.03;;;5.40;;
2438;SDS011;14509;47.992;7.848;2023-07-24T00:09:10;9.00;;;6.80;;
2438;SDS011;14509;47.992;7.848;2023-07-24T00:11:12;11.17;;;5.60;;
2438;SDS011;14509;47.992;7.848;2023-07-24T00:13:15;9.60;;;6.60;;
2438;SDS011;14509;47.992;7.848;2023-07-24T00:15:17;7.90;;;5.63;;
2438;SDS011;14509;47.992;7.848;2023-07-24T00:17:19;11.30;;;7.10;;
2438;SDS011;14509;47.992;7.848;2023-07-24T00:19:21;8.00;;;6.13;;
2438;SDS011;14509;47.992;7.848;2023-07-24T00:21:23;8.70;;;6.13;;
2438;SDS011;14509;47.992;7.848;2023-07-24T00:23:25;9.57;;;6.20;;
2438;SDS011;14509;47.992;7.848;2023-07-24T00:25:27;7.43;;;6.17;;
2438;SDS011;14509;47.992;7.848;2023-07-24T00:27:28;13.03;;;7.13;;
2438;SDS011;14509;47.992;7.848;2023-07-24T00:29:32;7.50;;;5.23;;
2438;SDS011;14509;47.992;7.848;2023-07-24T00:31:34;9.47;;;5.90;;
2438;SDS011;14509;47.992;7.848;2023-07-24T00:33:36;8.40;;;6.10;;
2438;SDS011;14509;47.992;7.848;2023-07-24T00:35:38;8.90;;;6.53;;
2438;SDS011;14509;47.992;7.848;2023-07-24T00:37:41;10.33;;;6.53;;
2438;SDS011;14509;47.992;7.848;2023-07-24T00:39:43;8.57;;;6.50;;
2438;SDS011;14509;47.992;7.848;2023-07-24T00:41:45;11.37;;;6.43;;
2438;SDS011;14509;47.992;7.848;2023-07-24T00:43:48;9.50;;;6.07;;
2438;SDS011;14509;47.992;7.848;2023-07-24T00:45:51;6.87;;;5.80;;
2438;SDS011;14509;47.992;7.848;2023-07-24T00:47:55;8.20;;;5.60;;
2438;SDS011;14509;47.992;7.848;2023-07-24T00:49:57;9.03;;;6.27;;
2438;SDS011;14509;47.992;7.848;2023-07-24T00:51:59;10.83;;;6.80;;
2438;SDS011;14509;47.992;7.848;2023-07-24T00:54:01;7.90;;;5.97;;
2438;SDS011;14509;47.992;7.848;2023-07-24T00:56:05;7.63;;;5.47;;
2438;SDS011;14509;47.992;7.848;2023-07-24T00:58:08;8.43;;;6.20;;
2438;SDS011;14509;47.992;7.848;2023-07-24T01:00:12;9.30;;;7.20;;
2438;SDS011;14509;47.992;7.848;2023-07-24T01:02:16;8.20;;;5.83;;
2438;SDS011;14509;47.992;7.848;2023-07-24T01:04:18;7.73;;;5.87;;
2438;SDS011;14509;47.992;7.848;2023-07-24T01:06:20;7.43;;;5.90;;
2438;SDS011;14509;47.992;7.848;2023-07-24T01:08:22;14.20;;;7.60;;
2438;SDS011;14509;47.992;7.848;2023-07-24T01:10:24;9.80;;;6.33;;
2438;SDS011;14509;47.992;7.848;2023-07-24T01:12:27;9.20;;;6.33;;
2438;SDS011;14509;47.992;7.848;2023-07-24T01:14:36;8.63;;;6.10;;
2438;SDS011;14509;47.992;7.848;2023-07-24T01:16:43;8.30;;;6.20;;
2438;SDS011;14509;47.992;7.848;2023-07-24T01:18:48;9.03;;;5.80;;
2438;SDS011;14509;47.992;7.848;2023-07-24T01:20:54;9.03;;;6.47;;
2438;SDS011;14509;47.992;7.848;2023-07-24T01:23:03;10.20;;;7.30;;
2438;SDS011;14509;47.992;7.848;2023-07-24T01:25:16;8.70;;;5.97;;
2438;SDS011;14509;47.992;7.848;2023-07-24T01:27:24;9.23;;;5.47;;
2438;SDS011;14509;47.992;7.848;2023-07-24T01:29:27;15.23;;;6.70;;
2438;SDS011;14509;47.992;7.848;2023-07-24T01:31:28;7.63;;;5.57;;
2438;SDS011;14509;47.992;7.848;2023-07-24T01:33:30;9.37;;;5.93;;
2438;SDS011;14509;47.992;7.848;2023-07-24T01:35:35;8.77;;;5.87;;
2438;SDS011;14509;47.992;7.848;2023-07-24T01:37:38;7.67;;;6.10;;
2438;SDS011;14509;47.992;7.848;2023-07-24T01:39:41;8.73;;;6.80;;
2438;SDS011;14509;47.992;7.848;2023-07-24T01:41:44;8.17;;;6.30;;
2438;SDS011;14509;47.992;7.848;2023-07-24T01:43:48;8.40;;;6.77;;
2438;SDS011;14509;47.992;7.848;2023-07-24T01:45:50;7.43;;;5.60;;
2438;SDS011;14509;47.992;7.848;2023-07-24T01:47:50;8.23;;;5.53;;
2438;SDS011;14509;47.992;7.848;2023-07-24T01:49:52;8.60;;;5.80;;
2438;SDS011;14509;47.992;7.848;2023-07-24T01:51:54;6.80;;;5.13;;
2438;SDS011;14509;47.992;7.848;2023-07-24T01:53:57;7.80;;;5.67;;
2438;SDS011;14509;47.992;7.848;2023-07-24T01:55:59;7.80;;;5.40;;
2438;SDS011;14509;47.992;7.848;2023-07-24T01:58:01;7.60;;;5.77;;
2438;SDS011;14509;47.992;7.848;2023-07-24T02:00:05;8.23;;;6.00;;
2438;SDS011;14509;47.992;7.848;2023-07-24T02:02:07;8.40;;;6.23;;
2438;SDS011;14509;47.992;7.848;2023-07-24T02:04:09;8.50;;;5.60;;
2438;SDS011;14509;47.992;7.848;2023-07-24T02:06:11;8.03;;;5.40;;
2438;SDS011;14509;47.992;7.848;2023-07-24T02:08:13;7.57;;;6.20;;
2438;SDS011;14509;47.992;7.848;2023-07-24T02:10:15;6.70;;;5.10;;
2438;SDS011;14509;47.992;7.848;2023-07-24T02:12:16;7.97;;;5.50;;
2438;SDS011;14509;47.992;7.848;2023-07-24T02:14:17;9.67;;;5.80;;
2438;SDS011;14509;47.992;7.848;2023-07-24T02:16:22;11.17;;;6.70;;
2438;SDS011;14509;47.992;7.848;2023-07-24T02:18:24;10.17;;;7.33;;
2438;SDS011;14509;47.992;7.848;2023-07-24T02:20:26;9.37;;;6.70;;
2438;SDS011;14509;47.992;7.848;2023-07-24T02:22:28;9.10;;;6.70;;
2438;SDS011;14509;47.992;7.848;2023-07-24T02:24:29;9.93;;;6.43;;
2438;SDS011;14509;47.992;7.848;2023-07-24T02:26:32;8.77;;;5.93;;
2438;SDS011;14509;47.992;7.848;2023-07-24T02:28:36;8.97;;;6.87;;
2438;SDS011;14509;47.992;7.848;2023-07-24T02:30:38;10.03;;;7.00;;
2438;SDS011;14509;47.992;7.848;2023-07-24T02:32:42;10.30;;;5.77;;
2438;SDS011;14509;47.992;7.848;2023-07-24T02:34:44;13.30;;;6.90;;
2438;SDS011;14509;47.992;7.848;2023-07-24T02:36:45;9.93;;;7.33;;
2438;SDS011;14509;47.992;7.848;2023-07-24T02:38:47;9.83;;;5.70;;
2438;SDS011;14509;47.992;7.848;2023-07-24T02:40:49;9.40;;;6.23;;
2438;SDS011;14509;47.992;7.848;2023-07-24T02:42:51;8.73;;;6.30;;
2438;SDS011;14509;47.992;7.848;2023-07-24T02:44:53;10.63;;;7.13;;
2438;SDS011;14509;47.992;7.848;2023-07-24T02:46:55;8.67;;;6.20;;
2438;SDS011;14509;47.992;7.848;2023-07-24T02:48:58;9.40;;;6.87;;
2438;SDS011;14509;47.992;7.848;2023-07-24T02:51:01;8.97;;;6.63;;
2438;SDS011;14509;47.992;7.848;2023-07-24T02:53:03;11.17;;;5.43;;
2438;SDS011;14509;47.992;7.848;2023-07-24T02:55:04;6.93;;;5.43;;
2438;SDS011;14509;47.992;7.848;2023-07-24T02:57:07;7.10;;;5.53;;
2438;SDS011;14509;47.992;7.848;2023-07-24T02:59:09;8.70;;;5.83;;
2438;SDS011;14509;47.992;7.848;2023-07-24T03:01:11;11.67;;;6.80;;
2438;SDS011;14509;47.992;7.848;2023-07-24T03:03:14;9.80;;;6.13;;
2438;SDS011;14509;47.992;7.848;2023-07-24T03:05:17;8.27;;;5.77;;
2438;SDS011;14509;47.992;7.848;2023-07-24T03:07:19;16.37;;;6.90;;
2438;SDS011;14509;47.992;7.848;2023-07-24T03:09:22;8.20;;;6.00;;
2438;SDS011;14509;47.992;7.848;2023-07-24T03:11:24;6.97;;;5.67;;
2438;SDS011;14509;47.992;7.848;2023-07-24T03:13:25;7.23;;;5.50;;
2438;SDS011;14509;47.992;7.848;2023-07-24T03:15:27;9.43;;;5.73;;
2438;SDS011;14509;47.992;7.848;2023-07-24T03:17:29;7.67;;;5.87;;
2438;SDS011;14509;47.992;7.848;2023-07-24T03:19:31;9.43;;;6.67;;
2438;SDS011;14509;47.992;7.848;2023-07-24T03:21:35;8.80;;;5.60;;
2438;SDS011;14509;47.992;7.848;2023-07-24T03:23:37;8.30;;;6.70;;
2438;SDS011;14509;47.992;7.848;2023-07-24T03:25:39;8.97;;;6.07;;
2438;SDS011;14509;47.992;7.848;2023-07-24T03:27:41;10.30;;;7.00;;
2438;SDS011;14509;47.992;7.848;2023-07-24T03:29:42;10.93;;;6.80;;
2438;SDS011;14509;47.992;7.848;2023-07-24T03:31:44;9.53;;;5.93;;
2438;SDS011;14509;47.992;7.848;2023-07-24T03:33:46;7.57;;;6.17;;
2438;SDS011;14509;47.992;7.848;2023-07-24T03:35:48;10.20;;;6.40;;
2438;SDS011;14509;47.992;7.848;2023-07-24T03:37:52;7.70;;;6.40;;
2438;SDS011;14509;47.992;7.848;2023-07-24T03:39:54;7.57;;;5.63;;
2438;SDS011;14509;47.992;7.848;2023-07-24T03:41:56;8.27;;;6.50;;
2438;SDS011;14509;47.992;7.848;2023-07-24T03:43:58;11.30;;;7.37;;
2438;SDS011;14509;47.992;7.848;2023-07-24T03:46:00;9.03;;;6.10;;
2438;SDS011;14509;47.992;7.848;2023-07-24T03:48:02;7.77;;;5.73;;
2438;SDS011;14509;47.992;7.848;2023-07-24T03:50:03;7.77;;;5.50;;
2438;SDS011;14509;47.992;7.848;2023-07-24T03:52:05;10.57;;;6.93;;
2438;SDS011;14509;47.992;7.848;2023-07-24T03:54:09;7.50;;;5.53;;
2438;SDS011;14509;47.992;7.848;2023-07-24T03:56:11;9.00;;;6.40;;
2438;SDS011;14509;47.992;7.848;2023-07-24T03:58:13;9.00;;;6.77;;
2438;SDS011;14509;47.992;7.848;2023-07-24T04:00:14;11.03;;;5.73;;
2438;SDS011;14509;47.992;7.848;2023-07-24T04:02:16;9.13;;;6.27;;
2438;SDS011;14509;47.992;7.848;2023-07-24T04:04:18;8.40;;;6.60;;
2438;SDS011;14509;47.992;7.848;2023-07-24T04:06:20;11.50;;;5.90;;
2438;SDS011;14509;47.992;7.848;2023-07-24T04:08:22;6.90;;;4.83;;
2438;SDS011;14509;47.992;7.848;2023-07-24T04:10:26;9.93;;;6.10;;
2438;SDS011;14509;47.992;7.848;2023-07-24T04:12:28;13.33;;;7.47;;
2438;SDS011;14509;47.992;7.848;2023-07-24T04:14:30;9.37;;;5.33;;
2438;SDS011;14509;47.992;7.848;2023-07-24T04:16:32;10.57;;;6.63;;
2438;SDS011;14509;47.992;7.848;2023-07-24T04:18:33;13.00;;;7.47;;
2438;SDS011;14509;47.992;7.848;2023-07-24T04:20:35;8.33;;;6.97;;
2438;SDS011;14509;47.992;7.848;2023-07-24T04:22:36;7.47;;;5.80;;
2438;SDS011;14509;47.992;7.848;2023-07-24T04:24:38;8.07;;;5.90;;
2438;SDS011;14509;47.992;7.848;2023-07-24T04:26:41;10.47;;;6.83;;
2438;SDS011;14509;47.992;7.848;2023-07-24T04:28:43;8.87;;;5.87;;
2438;SDS011;14509;47.992;7.848;2023-07-24T04:30:45;7.60;;;6.27;;
2438;SDS011;14509;47.992;7.848;2023-07-24T04:32:47;11.47;;;6.63;;
2438;SDS011;14509;47.992;7.848;2023-07-24T04:34:49;8.20;;;6.50;;
2438;SDS011;14509;47.992;7.848;2023-07-24T04:36:51;8.83;;;6.50;;
2438;SDS011;14509;47.992;7.848;2023-07-24T04:38:53;7.77;;;5.80;;
2438;SDS011;14509;47.992;7.848;2023-07-24T04:40:55;9.27;;;6.30;;
2438;SDS011;14509;47.992;7.848;2023-07-24T04:42:58;9.27;;;6.67;;
2438;SDS011;14509;47.992;7.848;2023-07-24T04:45:01;15.63;;;5.97;;
2438;SDS011;14509;47.992;7.848;2023-07-24T04:47:03;11.07;;;7.90;;
2438;SDS011;14509;47.992;7.848;2023-07-24T04:49:05;9.27;;;7.33;;
2438;SDS011;14509;47.992;7.848;2023-07-24T04:51:07;9.83;;;6.37;;
2438;SDS011;14509;47.992;7.848;2023-07-24T04:53:09;8.20;;;5.30;;
2438;SDS011;14509;47.992;7.848;2023-07-24T04:55:11;9.00;;;6.07;;
2438;SDS011;14509;47.992;7.848;2023-07-24T04:57:13;8.30;;;6.10;;
2438;SDS011;14509;47.992;7.848;2023-07-24T04:59:15;5.60;;;4.20;;
2438;SDS011;14509;47.992;7.848;2023-07-24T05:01:17;9.03;;;6.60;;
2438;SDS011;14509;47.992;7.848;2023-07-24T05:03:19;10.27;;;6.27;;
2438;SDS011;14509;47.992;7.848;2023-07-24T05:05:21;14.73;;;7.60;;
2438;SDS011;14509;47.992;7.848;2023-07-24T05:07:23;8.17;;;5.67;;
2438;SDS011;14509;47.992;7.848;2023-07-24T05:09:25;7.43;;;5.07;;
2438;SDS011;14509;47.992;7.848;2023-07-24T05:11:26;9.33;;;5.07;;
2438;SDS011;14509;47.992;7.848;2023-07-24T05:13:28;7.37;;;5.40;;
2438;SDS011;14509;47.992;7.848;2023-07-24T05:15:32;12.13;;;5.73;;
2438;SDS011;14509;47.992;7.848;2023-07-24T05:17:34;6.23;;;4.53;;
2438;SDS011;14509;47.992;7.848;2023-07-24T05:19:35;7.20;;;4.50;;
2438;SDS011;14509;47.992;7.848;2023-07-24T05:21:37;6.97;;;4.80;;
2438;SDS011;14509;47.992;7.848;2023-07-24T05:23:39;6.63;;;4.77;;
2438;SDS011;14509;47.992;7.848;2023-07-24T05:25:41;5.50;;;4.13;;
2438;SDS011;14509;47.992;7.848;2023-07-24T05:27:43;5.43;;;4.00;;
2438;SDS011;14509;47.992;7.848;2023-07-24T05:29:45;7.93;;;4.80;;
2438;SDS011;14509;47.992;7.848;2023-07-24T05:31:48;6.80;;;4.53;;
2438;SDS011;14509;47.992;7.848;2023-07-24T05:33:50;7.53;;;4.30;;
2438;SDS011;14509;47.992;7.848;2023-07-24T05:35:56;6.43;;;4.53;;
2438;SDS011;14509;47.992;7.848;2023-07-24T05:37:59;7.20;;;4.50;;
2438;SDS011;14509;47.992;7.848;2023-07-24T05:40:01;6.13;;;4.20;;
2438;SDS011;14509;47.992;7.848;2023-07-24T05:42:02;5.13;;;4.33;;
2438;SDS011;14509;47.992;7.848;2023-07-24T05:44:05;7.33;;;4.50;;
2438;SDS011;14509;47.992;7.848;2023-07-24T05:46:07;4.13;;;3.73;;
2438;SDS011;14509;47.992;7.848;2023-07-24T05:48:10;6.17;;;4.30;;
2438;SDS011;14509;47.992;7.848;2023-07-24T05:50:12;6.67;;;4.53;;
2438;SDS011;14509;47.992;7.848;2023-07-24T05:52:14;4.77;;;4.23;;
2438;SDS011;14509;47.992;7.848;2023-07-24T05:54:16;4.47;;;3.80;;
2438;SDS011;14509;47.992;7.848;2023-07-24T05:56:18;8.77;;;5.60;;
2438;SDS011;14509;47.992;7.848;2023-07-24T05:58:20;7.80;;;3.40;;
2438;SDS011;14509;47.992;7.848;2023-07-24T06:00:22;4.63;;;3.97;;
2438;SDS011;14509;47.992;7.848;2023-07-24T06:02:24;8.20;;;4.40;;
2438;SDS011;14509;47.992;7.848;2023-07-24T06:04:27;5.70;;;3.27;;
2438;SDS011;14509;47.992;7.848;2023-07-24T06:06:29;7.90;;;5.23;;
2438;SDS011;14509;47.992;7.848;2023-07-24T06:08:31;4.77;;;3.50;;
2438;SDS011;14509;47.992;7.848;2023-07-24T06:10:33;7.17;;;4.07;;
2438;SDS011;14509;47.992;7.848;2023-07-24T06:12:35;5.03;;;3.53;;
2438;SDS011;14509;47.992;7.848;2023-07-24T06:14:37;5.77;;;3.60;;
2438;SDS011;14509;47.992;7.848;2023-07-24T06:16:38;7.93;;;4.83;;
2438;SDS011;14509;47.992;7.848;2023-07-24T06:18:40;5.13;;;3.90;;
2438;SDS011;14509;47.992;7.848;2023-07-24T06:20:44;5.60;;;4.03;;
2438;SDS011;14509;47.992;7.848;2023-07-24T06:22:46;5.27;;;3.10;;
2438;SDS011;14509;47.992;7.848;2023-07-24T06:24:48;5.50;;;4.17;;
2438;SDS011;14509;47.992;7.848;2023-07-24T06:26:50;4.80;;;3.20;;
2438;SDS011;14509;47.992;7.848;2023-07-24T06:28:52;5.70;;;3.43;;
2438;SDS011;14509;47.992;7.848;2023-07-24T06:30:54;4.50;;;3.30;;
2438;SDS011;14509;47.992;7.848;2023-07-24T06:32:56;3.90;;;3.33;;
2438;SDS011;14509;47.992;7.848;2023-07-24T06:34:57;8.77;;;3.20;;
2438;SDS011;14509;47.992;7.848;2023-07-24T06:37:00;3.90;;;3.00;;
2438;SDS011;14509;47.992;7.848;2023-07-24T06:39:02;10.73;;;3.17;;
2438;SDS011;14509;47.992;7.848;2023-07-24T06:41:06;4.67;;;2.77;;
2438;SDS011;14509;47.992;7.848;2023-07-24T06:43:08;4.23;;;2.93;;
2438;SDS011;14509;47.992;7.848;2023-07-24T06:45:10;5.43;;;2.93;;
2438;SDS011;14509;47.992;7.848;2023-07-24T06:47:12;4.10;;;2.80;;
2438;SDS011;14509;47.992;7.848;2023-07-24T06:49:14;4.60;;;3.07;;
2438;SDS011;14509;47.992;7.848;2023-07-24T06:51:18;3.20;;;2.70;;
2438;SDS011;14509;47.992;7.848;2023-07-24T06:53:22;4.40;;;2.87;;
2438;SDS011;14509;47.992;7.848;2023-07-24T06:55:24;5.03;;;2.70;;
2438;SDS011;14509;47.992;7.848;2023-07-24T06:57:26;5.73;;;3.37;;
2438;SDS011;14509;47.992;7.848;2023-07-24T06:59:28;3.63;;;2.70;;
2438;SDS011;14509;47.992;7.848;2023-07-24T07:01:30;3.30;;;2.90;;
2438;SDS011;14509;47.992;7.848;2023-07-24T07:03:32;6.33;;;3.60;;
2438;SDS011;14509;47.992;7.848;2023-07-24T07:05:35;4.50;;;2.90;;
2438;SDS011;14509;47.992;7.848;2023-07-24T07:07:37;5.20;;;3.23;;
2438;SDS011;14509;47.992;7.848;2023-07-24T07:09:41;4.40;;;3.10;;
2438;SDS011;14509;47.992;7.848;2023-07-24T07:11:43;5.70;;;2.53;;
2438;SDS011;14509;47.992;7.848;2023-07-24T07:13:45;5.03;;;3.83;;
2438;SDS011;14509;47.992;7.848;2023-07-24T07:15:47;4.87;;;2.93;;
2438;SDS011;14509;47.992;7.848;2023-07-24T07:17:49;7.33;;;3.47;;
2438;SDS011;14509;47.992;7.848;2023-07-24T07:19:49;7.23;;;3.63;;
2438;SDS011;14509;47.992;7.848;2023-07-24T07:21:51;7.97;;;4.17;;
2438;SDS011;14509;47.992;7.848;2023-07-24T07:23:54;9.73;;;3.63;;
2438;SDS011;14509;47.992;7.848;2023-07-24T07:25:57;6.33;;;3.90;;
2438;SDS011;14509;47.992;7.848;2023-07-24T07:28:00;6.67;;;3.97;;
2438;SDS011;14509;47.992;7.848;2023-07-24T07:30:02;4.63;;;3.80;;
2438;SDS011;14509;47.992;7.848;2023-07-24T07:32:05;7.80;;;4.73;;
2438;SDS011;14509;47.992;7.848;2023-07-24T07:34:08;7.97;;;4.90;;
2438;SDS011;14509;47.992;7.848;2023-07-24T07:36:10;8.10;;;4.20;;
2438;SDS011;14509;47.992;7.848;2023-07-24T07:38:13;6.10;;;4.03;;
2438;SDS011;14509;47.992;7.848;2023-07-24T07:40:15;7.03;;;4.60;;
2438;SDS011;14509;47.992;7.848;2023-07-24T07:42:18;5.53;;;3.63;;
2438;SDS011;14509;47.992;7.848;2023-07-24T07:44:20;5.70;;;4.13;;
2438;SDS011;14509;47.992;7.848;2023-07-24T07:46:22;5.10;;;3.87;;
2438;SDS011;14509;47.992;7.848;2023-07-24T07:48:24;5.53;;;3.77;;
2438;SDS011;14509;47.992;7.848;2023-07-24T07:50:26;12.67;;;4.47;;
2438;SDS011;14509;47.992;7.848;2023-07-24T07:52:28;8.27;;;4.13;;
2438;SDS011;14509;47.992;7.848;2023-07-24T07:54:30;8.10;;;5.20;;
2438;SDS011;14509;47.992;7.848;2023-07-24T07:56:32;5.70;;;4.20;;
2438;SDS011;14509;47.992;7.848;2023-07-24T07:58:35;4.80;;;4.10;;
2438;SDS011;14509;47.992;7.848;2023-07-24T08:00:37;7.67;;;4.07;;
2438;SDS011;14509;47.992;7.848;2023-07-24T08:02:41;12.53;;;4.10;;
2438;SDS011;14509;47.992;7.848;2023-07-24T08:04:43;8.00;;;4.43;;
2438;SDS011;14509;47.992;7.848;2023-07-24T08:06:43;8.03;;;4.60;;
2438;SDS011;14509;47.992;7.848;2023-07-24T08:08:45;7.13;;;5.50;;
2438;SDS011;14509;47.992;7.848;2023-07-24T08:10:47;8.80;;;4.87;;
2438;SDS011;14509;47.992;7.848;2023-07-24T08:12:49;4.50;;;4.00;;
2438;SDS011;14509;47.992;7.848;2023-07-24T08:14:53;4.50;;;3.80;;
2438;SDS011;14509;47.992;7.848;2023-07-24T08:16:59;9.30;;;4.70;;
2438;SDS011;14509;47.992;7.848;2023-07-24T08:19:01;9.40;;;4.50;;
2438;SDS011;14509;47.992;7.848;2023-07-24T08:21:04;9.37;;;5.33;;
2438;SDS011;14509;47.992;7.848;2023-07-24T08:23:08;11.37;;;4.33;;
2438;SDS011;14509;47.992;7.848;2023-07-24T08:25:10;5.60;;;4.00;;
2438;SDS011;14509;47.992;7.848;2023-07-24T08:27:13;8.47;;;5.20;;
2438;SDS011;14509;47.992;7.848;2023-07-24T08:29:14;6.37;;;4.63;;
2438;SDS011;14509;47.992;7.848;2023-07-24T08:31:17;9.10;;;4.40;;
2438;SDS011;14509;47.992;7.848;2023-07-24T08:33:19;5.07;;;4.03;;
2438;SDS011;14509;47.992;7.848;2023-07-24T08:35:29;5.90;;;3.80;;
2438;SDS011;14509;47.992;7.848;2023-07-24T08:37:31;7.80;;;4.60;;
2438;SDS011;14509;47.992;7.848;2023-07-24T08:39:33;5.37;;;3.70;;
2438;SDS011;14509;47.992;7.848;2023-07-24T08:41:36;4.60;;;4.13;;
2438;SDS011;14509;47.992;7.848;2023-07-24T08:43:38;5.17;;;4.00;;
2438;SDS011;14509;47.992;7.848;2023-07-24T08:45:41;6.30;;;4.40;;
2438;SDS011;14509;47.992;7.848;2023-07-24T08:47:45;4.23;;;3.83;;
2438;SDS011;14509;47.992;7.848;2023-07-24T08:49:48;10.73;;;4.33;;
2438;SDS011;14509;47.992;7.848;2023-07-24T08:51:51;5.80;;;4.20;;
2438;SDS011;14509;47.992;7.848;2023-07-24T08:53:54;8.73;;;5.67;;
2438;SDS011;14509;47.992;7.848;2023-07-24T08:55:58;6.73;;;4.80;;
2438;SDS011;14509;47.992;7.848;2023-07-24T08:58:02;8.90;;;5.23;;
2438;SDS011;14509;47.992;7.848;2023-07-24T09:00:06;10.60;;;5.27;;
2438;SDS011;14509;47.992;7.848;2023-07-24T09:02:10;9.13;;;5.70;;
2438;SDS011;14509;47.992;7.848;2023-07-24T09:04:14;7.00;;;5.70;;
2438;SDS011;14509;47.992;7.848;2023-07-24T09:06:16;11.27;;;6.10;;
2438;SDS011;14509;47.992;7.848;2023-07-24T09:08:27;8.93;;;6.10;;
2438;SDS011;14509;47.992;7.848;2023-07-24T09:10:31;6.33;;;5.17;;
2438;SDS011;14509;47.992;7.848;2023-07-24T09:12:32;8.63;;;6.13;;
2438;SDS011;14509;47.992;7.848;2023-07-24T09:14:34;8.57;;;5.60;;
2438;SDS011;14509;47.992;7.848;2023-07-24T09:16:35;12.70;;;5.33;;
2438;SDS011;14509;47.992;7.848;2023-07-24T09:18:43;14.90;;;6.70;;
2438;SDS011;14509;47.992;7.848;2023-07-24T09:23:54;6.03;;;4.63;;
2438;SDS011;14509;47.992;7.848;2023-07-24T09:25:57;7.30;;;4.80;;
2438;SDS011;14509;47.992;7.848;2023-07-24T09:28:00;8.80;;;6.30;;
2438;SDS011;14509;47.992;7.848;2023-07-24T09:30:01;8.93;;;4.63;;
2438;SDS011;14509;47.992;7.848;2023-07-24T09:32:03;7.57;;;4.50;;
2438;SDS011;14509;47.992;7.848;2023-07-24T09:34:13;6.97;;;4.30;;
2438;SDS011;14509;47.992;7.848;2023-07-24T09:36:23;5.07;;;3.40;;
2438;SDS011;14509;47.992;7.848;2023-07-24T09:38:25;6.87;;;3.53;;
2438;SDS011;14509;47.992;7.848;2023-07-24T09:40:36;5.37;;;3.43;;
2438;SDS011;14509;47.992;7.848;2023-07-24T09:42:40;4.43;;;3.00;;
2438;SDS011;14509;47.992;7.848;2023-07-24T09:44:42;6.03;;;4.50;;
2438;SDS011;14509;47.992;7.848;2023-07-24T09:46:43;6.73;;;3.40;;
2438;SDS011;14509;47.992;7.848;2023-07-24T09:48:46;9.13;;;4.97;;
2438;SDS011;14509;47.992;7.848;2023-07-24T09:50:49;4.30;;;3.40;;
2438;SDS011;14509;47.992;7.848;2023-07-24T09:52:54;9.87;;;3.70;;
2438;SDS011;14509;47.992;7.848;2023-07-24T09:55:11;5.00;;;3.40;;
2438;SDS011;14509;47.992;7.848;2023-07-24T09:57:18;6.13;;;3.43;;
2438;SDS011;14509;47.992;7.848;2023-07-24T09:59:21;7.53;;;4.37;;
2438;SDS011;14509;47.992;7.848;2023-07-24T10:01:24;12.47;;;4.33;;
2438;SDS011;14509;47.992;7.848;2023-07-24T10:03:33;2.67;;;2.20;;
2438;SDS011;14509;47.992;7.848;2023-07-24T10:05:36;4.40;;;2.70;;
2438;SDS011;14509;47.992;7.848;2023-07-24T10:07:37;6.70;;;3.37;;
2438;SDS011;14509;47.992;7.848;2023-07-24T10:09:39;5.20;;;3.77;;
2438;SDS011;14509;47.992;7.848;2023-07-24T10:11:50;8.13;;;4.27;;
2438;SDS011;14509;47.992;7.848;2023-07-24T10:13:57;3.93;;;2.47;;
2438;SDS011;14509;47.992;7.848;2023-07-24T10:16:00;7.30;;;3.30;;
2438;SDS011;14509;47.992;7.848;2023-07-24T10:18:09;4.73;;;1.80;;
2438;SDS011;14509;47.992;7.848;2023-07-24T10:20:11;2.67;;;2.00;;
2438;SDS011;14509;47.992;7.848;2023-07-24T10:22:21;6.70;;;2.87;;
2438;SDS011;14509;47.992;7.848;2023-07-24T10:24:28;6.40;;;2.40;;
2438;SDS011;14509;47.992;7.848;2023-07-24T10:26:30;3.37;;;2.77;;
2438;SDS011;14509;47.992;7.848;2023-07-24T10:28:37;5.07;;;3.93;;
2438;SDS011;14509;47.992;7.848;2023-07-24T10:30:42;5.80;;;4.17;;
2438;SDS011;14509;47.992;7.848;2023-07-24T10:32:45;4.20;;;3.00;;
2438;SDS011;14509;47.992;7.848;2023-07-24T10:34:55;7.20;;;3.20;;
2438;SDS011;14509;47.992;7.848;2023-07-24T10:37:01;5.43;;;2.83;;
2438;SDS011;14509;47.992;7.848;2023-07-24T10:39:12;9.23;;;3.20;;
2438;SDS011;14509;47.992;7.848;2023-07-24T10:41:15;4.33;;;3.13;;
2438;SDS011;14509;47.992;7.848;2023-07-24T10:43:17;4.20;;;3.33;;
2438;SDS011;14509;47.992;7.848;2023-07-24T10:45:23;3.87;;;2.87;;
2438;SDS011;14509;47.992;7.848;2023-07-24T12:39:14;3.10;;;1.93;;
2438;SDS011;14509;47.992;7.848;2023-07-24T12:41:16;3.03;;;1.83;;
2438;SDS011;14509;47.992;7.848;2023-07-24T12:43:18;3.50;;;2.37;;
2438;SDS011;14509;47.992;7.848;2023-07-24T12:45:20;2.70;;;2.03;;
2438;SDS011;14509;47.992;7.848;2023-07-24T12:47:22;2.60;;;2.00;;
2438;SDS011;14509;47.992;7.848;2023-07-24T12:49:24;3.40;;;2.00;;
2438;SDS011;14509;47.992;7.848;2023-07-24T12:51:26;2.50;;;1.83;;
2438;SDS011;14509;47.992;7.848;2023-07-24T12:53:29;3.70;;;2.07;;
2438;SDS011;14509;47.992;7.848;2023-07-24T12:55:32;2.13;;;1.70;;
2438;SDS011;14509;47.992;7.848;2023-07-24T12:57:35;2.87;;;2.03;;
2438;SDS011;14509;47.992;7.848;2023-07-24T12:59:38;3.97;;;3.10;;
2438;SDS011;14509;47.992;7.848;2023-07-24T13:01:40;2.80;;;2.00;;
2438;SDS011;14509;47.992;7.848;2023-07-24T13:03:42;2.23;;;1.77;;
2438;SDS011;14509;47.992;7.848;2023-07-24T13:05:44;1.90;;;1.77;;
2438;SDS011;14509;47.992;7.848;2023-07-24T13:07:47;3.10;;;1.70;;
2438;SDS011;14509;47.992;7.848;2023-07-24T13:09:49;3.53;;;1.83;;
2438;SDS011;14509;47.992;7.848;2023-07-24T13:11:53;2.70;;;2.10;;
2438;SDS011;14509;47.992;7.848;2023-07-24T13:13:55;2.90;;;2.40;;
2438;SDS011;14509;47.992;7.848;2023-07-24T13:15:56;3.80;;;2.53;;
2438;SDS011;14509;47.992;7.848;2023-07-24T13:17:58;4.70;;;2.90;;
2438;SDS011;14509;47.992;7.848;2023-07-24T13:20:00;3.00;;;2.57;;
2438;SDS011;14509;47.992;7.848;2023-07-24T13:22:02;5.57;;;3.30;;
2438;SDS011;14509;47.992;7.848;2023-07-24T13:24:05;4.30;;;2.87;;
2438;SDS011;14509;47.992;7.848;2023-07-24T13:26:06;5.27;;;3.93;;
2438;SDS011;14509;47.992;7.848;2023-07-24T13:28:12;3.53;;;2.80;;
2438;SDS011;14509;47.992;7.848;2023-07-24T13:30:15;6.13;;;3.20;;
2438;SDS011;14509;47.992;7.848;2023-07-24T13:32:18;5.03;;;3.40;;
2438;SDS011;14509;47.992;7.848;2023-07-24T13:34:21;4.37;;;3.67;;
2438;SDS011;14509;47.992;7.848;2023-07-24T13:36:24;7.70;;;3.87;;
2438;SDS011;14509;47.992;7.848;2023-07-24T13:38:25;8.73;;;5.33;;
2438;SDS011;14509;47.992;7.848;2023-07-24T13:40:27;5.60;;;4.53;;
2438;SDS011;14509;47.992;7.848;2023-07-24T13:42:29;8.30;;;4.47;;
2438;SDS011;14509;47.992;7.848;2023-07-24T13:44:32;6.30;;;3.80;;
2438;SDS011;14509;47.992;7.848;2023-07-24T13:46:34;8.60;;;4.90;;
2438;SDS011;14509;47.992;7.848;2023-07-24T13:48:36;7.03;;;5.80;;
2438;SDS011;14509;47.992;7.848;2023-07-24T13:50:37;6.50;;;4.60;;
2438;SDS011;14509;47.992;7.848;2023-07-24T13:52:40;7.30;;;4.37;;
2438;SDS011;14509;47.992;7.848;2023-07-24T13:54:42;6.03;;;4.30;;
2438;SDS011;14509;47.992;7.848;2023-07-24T13:56:44;6.17;;;3.57;;
2438;SDS011;14509;47.992;7.848;2023-07-24T13:58:46;5.70;;;3.97;;
2438;SDS011;14509;47.992;7.848;2023-07-24T14:00:50;7.87;;;5.13;;
2438;SDS011;14509;47.992;7.848;2023-07-24T14:02:52;5.60;;;4.20;;
2438;SDS011;14509;47.992;7.848;2023-07-24T14:04:54;6.60;;;4.27;;
2438;SDS011;14509;47.992;7.848;2023-07-24T14:06:57;7.70;;;4.67;;
2438;SDS011;14509;47.992;7.848;2023-07-24T14:08:59;6.30;;;4.43;;
2438;SDS011;14509;47.992;7.848;2023-07-24T14:11:01;4.70;;;3.80;;
2438;SDS011;14509;47.992;7.848;2023-07-24T14:13:03;8.20;;;4.33;;
2438;SDS011;14509;47.992;7.848;2023-07-24T14:15:05;4.60;;;3.37;;
2438;SDS011;14509;47.992;7.848;2023-07-24T14:17:09;4.17;;;3.20;;
2438;SDS011;14509;47.992;7.848;2023-07-24T14:19:11;6.93;;;3.00;;
2438;SDS011;14509;47.992;7.848;2023-07-24T14:21:16;4.57;;;3.20;;
2438;SDS011;14509;47.992;7.848;2023-07-24T14:23:19;4.60;;;3.53;;
2438;SDS011;14509;47.992;7.848;2023-07-24T14:26:07;4.17;;;3.30;;